sensor_id;sensor_type;location;lat;lon;timestamp;P1;durP1;ratioP1;P2;durP2;ratioP2
568;SDS011;269;48.884;9.192;2023-05-29T00:00:03;5.30;;;4.60;;
568;SDS011;269;48.884;9.192;2023-05-29T00:02:33;6.00;;;4.80;;
568;SDS011;269;48.884;9.192;2023-05-29T00:05:00;7.20;;;5.00;;
568;SDS011;269;48.884;9.192;2023-05-29T00:07:28;4.87;;;4.13;;
568;SDS011;269;48.884;9.192;2023-05-29T00:09:55;4.97;;;4.17;;
568;SDS011;269;48.884;9.192;2023-05-29T00:12:22;5.00;;;4.03;;
568;SDS011;269;48.884;9.192;2023-05-29T00:14:49;4.53;;;4.13;;
568;SDS011;269;48.884;9.192;2023-05-29T00:17:16;4.70;;;4.10;;
568;SDS011;269;48.884;9.192;2023-05-29T00:19:44;4.70;;;4.30;;
568;SDS011;269;48.884;9.192;2023-05-29T00:22:12;4.37;;;3.77;;
568;SDS011;269;48.884;9.192;2023-05-29T00:24:39;5.00;;;4.40;;
568;SDS011;269;48.884;9.192;2023-05-29T00:27:06;5.63;;;4.40;;
568;SDS011;269;48.884;9.192;2023-05-29T00:29:33;4.93;;;4.07;;
568;SDS011;269;48.884;9.192;2023-05-29T00:32:01;4.20;;;3.80;;
568;SDS011;269;48.884;9.192;2023-05-29T00:34:28;4.70;;;4.20;;
568;SDS011;269;48.884;9.192;2023-05-29T00:36:56;4.87;;;4.47;;
568;SDS011;269;48.884;9.192;2023-05-29T00:39:23;4.70;;;4.30;;
568;SDS011;269;48.884;9.192;2023-05-29T00:41:51;5.33;;;4.10;;
568;SDS011;269;48.884;9.192;2023-05-29T00:44:18;5.50;;;4.37;;
568;SDS011;269;48.884;9.192;2023-05-29T00:46:45;5.90;;;4.17;;
568;SDS011;269;48.884;9.192;2023-05-29T00:49:12;5.23;;;4.47;;
568;SDS011;269;48.884;9.192;2023-05-29T00:51:39;4.20;;;3.63;;
568;SDS011;269;48.884;9.192;2023-05-29T00:54:10;4.90;;;4.13;;
568;SDS011;269;48.884;9.192;2023-05-29T00:56:39;4.90;;;4.40;;
568;SDS011;269;48.884;9.192;2023-05-29T00:59:09;4.60;;;4.10;;
568;SDS011;269;48.884;9.192;2023-05-29T01:01:37;4.57;;;4.03;;
568;SDS011;269;48.884;9.192;2023-05-29T01:04:05;7.37;;;4.80;;
568;SDS011;269;48.884;9.192;2023-05-29T01:06:32;5.40;;;4.20;;
568;SDS011;269;48.884;9.192;2023-05-29T01:08:59;5.20;;;4.70;;
568;SDS011;269;48.884;9.192;2023-05-29T01:11:29;5.33;;;4.83;;
568;SDS011;269;48.884;9.192;2023-05-29T01:14:04;6.33;;;5.63;;
568;SDS011;269;48.884;9.192;2023-05-29T01:16:35;6.40;;;5.10;;
568;SDS011;269;48.884;9.192;2023-05-29T01:19:08;6.80;;;5.27;;
568;SDS011;269;48.884;9.192;2023-05-29T01:21:47;6.70;;;5.43;;
568;SDS011;269;48.884;9.192;2023-05-29T01:24:25;6.63;;;4.40;;
568;SDS011;269;48.884;9.192;2023-05-29T01:27:01;5.27;;;4.73;;
568;SDS011;269;48.884;9.192;2023-05-29T01:29:32;6.17;;;5.30;;
568;SDS011;269;48.884;9.192;2023-05-29T01:32:01;6.33;;;4.77;;
568;SDS011;269;48.884;9.192;2023-05-29T01:34:28;5.13;;;4.57;;
568;SDS011;269;48.884;9.192;2023-05-29T01:36:55;5.40;;;4.83;;
568;SDS011;269;48.884;9.192;2023-05-29T01:39:23;5.60;;;5.10;;
568;SDS011;269;48.884;9.192;2023-05-29T01:41:51;6.20;;;4.70;;
568;SDS011;269;48.884;9.192;2023-05-29T01:44:21;5.83;;;5.20;;
568;SDS011;269;48.884;9.192;2023-05-29T01:46:50;6.00;;;5.40;;
568;SDS011;269;48.884;9.192;2023-05-29T01:49:17;6.10;;;5.50;;
568;SDS011;269;48.884;9.192;2023-05-29T01:51:45;7.13;;;5.90;;
568;SDS011;269;48.884;9.192;2023-05-29T01:54:12;5.90;;;5.37;;
568;SDS011;269;48.884;9.192;2023-05-29T01:56:40;6.90;;;6.00;;
568;SDS011;269;48.884;9.192;2023-05-29T01:59:08;8.63;;;5.70;;
568;SDS011;269;48.884;9.192;2023-05-29T02:01:39;7.20;;;5.00;;
568;SDS011;269;48.884;9.192;2023-05-29T02:04:07;5.83;;;5.30;;
568;SDS011;269;48.884;9.192;2023-05-29T02:06:34;6.37;;;5.33;;
568;SDS011;269;48.884;9.192;2023-05-29T02:09:02;6.00;;;5.40;;
568;SDS011;269;48.884;9.192;2023-05-29T02:11:29;7.17;;;6.37;;
568;SDS011;269;48.884;9.192;2023-05-29T02:13:56;7.63;;;5.53;;
568;SDS011;269;48.884;9.192;2023-05-29T02:16:23;6.77;;;5.70;;
568;SDS011;269;48.884;9.192;2023-05-29T02:18:54;5.90;;;5.30;;
568;SDS011;269;48.884;9.192;2023-05-29T02:21:21;6.67;;;5.03;;
568;SDS011;269;48.884;9.192;2023-05-29T02:23:48;6.53;;;5.93;;
568;SDS011;269;48.884;9.192;2023-05-29T02:26:15;5.60;;;5.10;;
568;SDS011;269;48.884;9.192;2023-05-29T02:28:42;5.70;;;5.20;;
568;SDS011;269;48.884;9.192;2023-05-29T02:31:09;7.30;;;5.33;;
568;SDS011;269;48.884;9.192;2023-05-29T02:33:36;5.70;;;5.20;;
568;SDS011;269;48.884;9.192;2023-05-29T02:36:05;6.47;;;5.30;;
568;SDS011;269;48.884;9.192;2023-05-29T02:38:37;7.33;;;5.60;;
568;SDS011;269;48.884;9.192;2023-05-29T02:41:04;5.93;;;5.17;;
568;SDS011;269;48.884;9.192;2023-05-29T02:43:31;7.20;;;5.27;;
568;SDS011;269;48.884;9.192;2023-05-29T02:45:58;6.30;;;5.40;;
568;SDS011;269;48.884;9.192;2023-05-29T02:48:25;6.97;;;5.50;;
568;SDS011;269;48.884;9.192;2023-05-29T02:50:52;5.63;;;4.93;;
568;SDS011;269;48.884;9.192;2023-05-29T02:53:20;5.70;;;5.20;;
568;SDS011;269;48.884;9.192;2023-05-29T02:55:48;6.00;;;5.40;;
568;SDS011;269;48.884;9.192;2023-05-29T02:58:16;6.40;;;5.80;;
568;SDS011;269;48.884;9.192;2023-05-29T03:00:43;5.80;;;5.20;;
568;SDS011;269;48.884;9.192;2023-05-29T03:03:11;7.03;;;5.33;;
568;SDS011;269;48.884;9.192;2023-05-29T03:05:38;7.47;;;5.50;;
568;SDS011;269;48.884;9.192;2023-05-29T03:08:05;5.50;;;4.97;;
568;SDS011;269;48.884;9.192;2023-05-29T03:10:33;6.27;;;5.30;;
568;SDS011;269;48.884;9.192;2023-05-29T03:13:00;5.80;;;5.30;;
568;SDS011;269;48.884;9.192;2023-05-29T03:15:27;6.30;;;5.47;;
568;SDS011;269;48.884;9.192;2023-05-29T03:17:54;6.60;;;5.43;;
568;SDS011;269;48.884;9.192;2023-05-29T03:20:21;5.73;;;5.13;;
568;SDS011;269;48.884;9.192;2023-05-29T03:22:49;6.33;;;5.33;;
568;SDS011;269;48.884;9.192;2023-05-29T03:25:16;5.87;;;5.20;;
568;SDS011;269;48.884;9.192;2023-05-29T03:27:44;6.67;;;5.30;;
568;SDS011;269;48.884;9.192;2023-05-29T03:30:11;6.63;;;5.90;;
568;SDS011;269;48.884;9.192;2023-05-29T03:32:39;6.77;;;5.30;;
568;SDS011;269;48.884;9.192;2023-05-29T03:35:06;7.03;;;5.73;;
568;SDS011;269;48.884;9.192;2023-05-29T03:37:33;6.07;;;5.40;;
568;SDS011;269;48.884;9.192;2023-05-29T03:40:00;6.60;;;5.43;;
568;SDS011;269;48.884;9.192;2023-05-29T03:42:28;6.00;;;5.30;;
568;SDS011;269;48.884;9.192;2023-05-29T03:44:58;6.63;;;6.00;;
568;SDS011;269;48.884;9.192;2023-05-29T03:47:25;6.10;;;5.50;;
568;SDS011;269;48.884;9.192;2023-05-29T03:49:52;6.83;;;5.30;;
568;SDS011;269;48.884;9.192;2023-05-29T03:52:19;6.37;;;5.20;;
568;SDS011;269;48.884;9.192;2023-05-29T03:54:46;5.20;;;4.70;;
568;SDS011;269;48.884;9.192;2023-05-29T03:57:13;6.07;;;5.47;;
568;SDS011;269;48.884;9.192;2023-05-29T03:59:40;6.53;;;5.30;;
568;SDS011;269;48.884;9.192;2023-05-29T04:02:08;6.03;;;5.30;;
568;SDS011;269;48.884;9.192;2023-05-29T04:04:35;5.80;;;5.20;;
568;SDS011;269;48.884;9.192;2023-05-29T04:07:02;6.50;;;5.37;;
568;SDS011;269;48.884;9.192;2023-05-29T04:09:30;5.93;;;4.93;;
568;SDS011;269;48.884;9.192;2023-05-29T04:11:57;5.37;;;4.87;;
568;SDS011;269;48.884;9.192;2023-05-29T04:14:25;6.07;;;5.47;;
568;SDS011;269;48.884;9.192;2023-05-29T04:16:52;5.77;;;5.20;;
568;SDS011;269;48.884;9.192;2023-05-29T04:19:20;5.73;;;5.23;;
568;SDS011;269;48.884;9.192;2023-05-29T04:21:47;5.50;;;5.00;;
568;SDS011;269;48.884;9.192;2023-05-29T04:24:14;6.27;;;5.67;;
568;SDS011;269;48.884;9.192;2023-05-29T04:26:41;5.57;;;5.03;;
568;SDS011;269;48.884;9.192;2023-05-29T04:29:08;6.00;;;4.97;;
568;SDS011;269;48.884;9.192;2023-05-29T04:31:38;5.87;;;5.37;;
568;SDS011;269;48.884;9.192;2023-05-29T04:34:05;6.63;;;4.87;;
568;SDS011;269;48.884;9.192;2023-05-29T04:36:34;5.40;;;4.87;;
568;SDS011;269;48.884;9.192;2023-05-29T04:39:03;6.30;;;4.60;;
568;SDS011;269;48.884;9.192;2023-05-29T04:41:30;5.50;;;4.90;;
568;SDS011;269;48.884;9.192;2023-05-29T04:43:57;7.13;;;5.37;;
568;SDS011;269;48.884;9.192;2023-05-29T04:46:24;5.50;;;4.20;;
568;SDS011;269;48.884;9.192;2023-05-29T04:48:51;4.93;;;4.43;;
568;SDS011;269;48.884;9.192;2023-05-29T04:51:19;4.57;;;4.17;;
568;SDS011;269;48.884;9.192;2023-05-29T04:53:48;6.93;;;4.90;;
568;SDS011;269;48.884;9.192;2023-05-29T04:56:15;5.17;;;4.67;;
568;SDS011;269;48.884;9.192;2023-05-29T04:58:42;7.73;;;4.80;;
568;SDS011;269;48.884;9.192;2023-05-29T05:01:10;5.70;;;4.30;;
568;SDS011;269;48.884;9.192;2023-05-29T05:03:39;4.67;;;4.17;;
568;SDS011;269;48.884;9.192;2023-05-29T05:06:07;5.67;;;4.27;;
568;SDS011;269;48.884;9.192;2023-05-29T05:08:34;5.70;;;4.07;;
568;SDS011;269;48.884;9.192;2023-05-29T05:11:03;5.90;;;4.47;;
568;SDS011;269;48.884;9.192;2023-05-29T05:13:31;4.63;;;4.20;;
568;SDS011;269;48.884;9.192;2023-05-29T05:15:58;4.97;;;4.47;;
568;SDS011;269;48.884;9.192;2023-05-29T05:18:25;4.67;;;4.10;;
568;SDS011;269;48.884;9.192;2023-05-29T05:20:52;5.93;;;4.93;;
568;SDS011;269;48.884;9.192;2023-05-29T05:23:19;4.53;;;4.13;;
568;SDS011;269;48.884;9.192;2023-05-29T05:25:46;5.90;;;4.73;;
568;SDS011;269;48.884;9.192;2023-05-29T05:28:15;5.13;;;4.37;;
568;SDS011;269;48.884;9.192;2023-05-29T05:30:42;4.57;;;4.17;;
568;SDS011;269;48.884;9.192;2023-05-29T05:33:09;6.37;;;4.30;;
568;SDS011;269;48.884;9.192;2023-05-29T05:35:36;5.43;;;4.60;;
568;SDS011;269;48.884;9.192;2023-05-29T05:38:03;5.07;;;4.37;;
568;SDS011;269;48.884;9.192;2023-05-29T05:40:30;6.47;;;5.00;;
568;SDS011;269;48.884;9.192;2023-05-29T05:42:57;5.30;;;4.80;;
568;SDS011;269;48.884;9.192;2023-05-29T05:45:26;5.37;;;4.50;;
568;SDS011;269;48.884;9.192;2023-05-29T05:47:52;6.20;;;4.80;;
568;SDS011;269;48.884;9.192;2023-05-29T05:50:20;6.17;;;4.53;;
568;SDS011;269;48.884;9.192;2023-05-29T05:52:47;5.40;;;4.20;;
568;SDS011;269;48.884;9.192;2023-05-29T05:55:14;5.60;;;4.70;;
568;SDS011;269;48.884;9.192;2023-05-29T05:57:41;5.57;;;5.07;;
568;SDS011;269;48.884;9.192;2023-05-29T06:00:09;7.53;;;5.20;;
568;SDS011;269;48.884;9.192;2023-05-29T06:02:38;7.13;;;5.23;;
568;SDS011;269;48.884;9.192;2023-05-29T06:05:08;7.17;;;4.90;;
568;SDS011;269;48.884;9.192;2023-05-29T06:07:35;4.83;;;4.33;;
568;SDS011;269;48.884;9.192;2023-05-29T06:10:02;7.13;;;5.27;;
568;SDS011;269;48.884;9.192;2023-05-29T06:12:30;5.13;;;4.53;;
568;SDS011;269;48.884;9.192;2023-05-29T06:14:57;5.00;;;4.50;;
568;SDS011;269;48.884;9.192;2023-05-29T06:17:24;7.93;;;4.80;;
568;SDS011;269;48.884;9.192;2023-05-29T06:19:53;4.50;;;4.10;;
568;SDS011;269;48.884;9.192;2023-05-29T06:22:20;4.40;;;4.00;;
568;SDS011;269;48.884;9.192;2023-05-29T06:24:47;4.93;;;4.50;;
568;SDS011;269;48.884;9.192;2023-05-29T06:27:14;5.40;;;4.90;;
568;SDS011;269;48.884;9.192;2023-05-29T06:29:43;5.47;;;4.97;;
568;SDS011;269;48.884;9.192;2023-05-29T06:32:09;5.73;;;5.20;;
568;SDS011;269;48.884;9.192;2023-05-29T06:34:37;5.60;;;4.50;;
568;SDS011;269;48.884;9.192;2023-05-29T06:37:05;5.33;;;4.77;;
568;SDS011;269;48.884;9.192;2023-05-29T06:39:32;5.00;;;4.50;;
568;SDS011;269;48.884;9.192;2023-05-29T06:42:00;5.87;;;5.37;;
568;SDS011;269;48.884;9.192;2023-05-29T06:44:27;5.50;;;5.00;;
568;SDS011;269;48.884;9.192;2023-05-29T06:46:54;5.23;;;4.83;;
568;SDS011;269;48.884;9.192;2023-05-29T06:49:21;6.83;;;4.40;;
568;SDS011;269;48.884;9.192;2023-05-29T06:51:48;5.33;;;4.70;;
568;SDS011;269;48.884;9.192;2023-05-29T06:54:17;5.30;;;4.60;;
568;SDS011;269;48.884;9.192;2023-05-29T06:56:44;5.20;;;4.70;;
568;SDS011;269;48.884;9.192;2023-05-29T06:59:11;6.77;;;4.50;;
568;SDS011;269;48.884;9.192;2023-05-29T07:01:38;6.03;;;4.73;;
568;SDS011;269;48.884;9.192;2023-05-29T07:04:05;5.67;;;4.50;;
568;SDS011;269;48.884;9.192;2023-05-29T07:06:32;5.20;;;4.70;;
568;SDS011;269;48.884;9.192;2023-05-29T07:09:00;4.90;;;4.40;;
568;SDS011;269;48.884;9.192;2023-05-29T07:11:29;5.60;;;4.43;;
568;SDS011;269;48.884;9.192;2023-05-29T07:13:56;4.43;;;3.90;;
568;SDS011;269;48.884;9.192;2023-05-29T07:16:23;5.30;;;4.37;;
568;SDS011;269;48.884;9.192;2023-05-29T07:18:50;4.73;;;4.33;;
568;SDS011;269;48.884;9.192;2023-05-29T07:21:17;4.80;;;4.40;;
568;SDS011;269;48.884;9.192;2023-05-29T07:23:45;4.83;;;4.33;;
568;SDS011;269;48.884;9.192;2023-05-29T07:26:12;5.17;;;4.67;;
568;SDS011;269;48.884;9.192;2023-05-29T07:28:41;5.13;;;4.73;;
568;SDS011;269;48.884;9.192;2023-05-29T07:31:08;5.10;;;4.67;;
568;SDS011;269;48.884;9.192;2023-05-29T07:33:35;4.70;;;4.30;;
568;SDS011;269;48.884;9.192;2023-05-29T07:36:02;5.00;;;4.10;;
568;SDS011;269;48.884;9.192;2023-05-29T07:38:29;4.60;;;4.20;;
568;SDS011;269;48.884;9.192;2023-05-29T07:40:56;5.70;;;4.43;;
568;SDS011;269;48.884;9.192;2023-05-29T07:43:23;4.40;;;4.00;;
568;SDS011;269;48.884;9.192;2023-05-29T07:45:52;4.50;;;4.10;;
568;SDS011;269;48.884;9.192;2023-05-29T07:48:19;4.90;;;4.20;;
568;SDS011;269;48.884;9.192;2023-05-29T07:50:46;5.00;;;4.60;;
568;SDS011;269;48.884;9.192;2023-05-29T07:53:13;5.10;;;4.60;;
568;SDS011;269;48.884;9.192;2023-05-29T07:55:40;4.63;;;4.17;;
568;SDS011;269;48.884;9.192;2023-05-29T07:58:07;4.53;;;4.23;;
568;SDS011;269;48.884;9.192;2023-05-29T08:00:36;4.70;;;4.20;;
568;SDS011;269;48.884;9.192;2023-05-29T08:03:05;4.47;;;3.90;;
568;SDS011;269;48.884;9.192;2023-05-29T08:05:33;4.40;;;4.07;;
568;SDS011;269;48.884;9.192;2023-05-29T08:08:00;4.70;;;4.30;;
568;SDS011;269;48.884;9.192;2023-05-29T08:10:28;4.10;;;3.80;;
568;SDS011;269;48.884;9.192;2023-05-29T08:12:55;6.67;;;4.63;;
568;SDS011;269;48.884;9.192;2023-05-29T08:15:22;5.93;;;5.00;;
568;SDS011;269;48.884;9.192;2023-05-29T08:17:49;4.50;;;3.70;;
568;SDS011;269;48.884;9.192;2023-05-29T08:20:18;4.77;;;4.40;;
568;SDS011;269;48.884;9.192;2023-05-29T08:22:45;4.80;;;4.40;;
568;SDS011;269;48.884;9.192;2023-05-29T08:25:13;4.67;;;4.20;;
568;SDS011;269;48.884;9.192;2023-05-29T08:27:40;4.53;;;4.00;;
568;SDS011;269;48.884;9.192;2023-05-29T08:30:07;4.50;;;4.10;;
568;SDS011;269;48.884;9.192;2023-05-29T08:32:35;5.10;;;4.70;;
568;SDS011;269;48.884;9.192;2023-05-29T08:35:02;4.93;;;4.50;;
568;SDS011;269;48.884;9.192;2023-05-29T08:37:31;4.97;;;4.57;;
568;SDS011;269;48.884;9.192;2023-05-29T08:39:58;4.60;;;4.00;;
568;SDS011;269;48.884;9.192;2023-05-29T08:42:26;5.03;;;4.53;;
568;SDS011;269;48.884;9.192;2023-05-29T08:45:00;4.80;;;4.30;;
568;SDS011;269;48.884;9.192;2023-05-29T08:47:29;4.43;;;4.03;;
568;SDS011;269;48.884;9.192;2023-05-29T08:50:00;4.57;;;4.23;;
568;SDS011;269;48.884;9.192;2023-05-29T08:52:29;5.57;;;4.40;;
568;SDS011;269;48.884;9.192;2023-05-29T08:55:02;4.67;;;4.27;;
568;SDS011;269;48.884;9.192;2023-05-29T08:57:30;5.97;;;4.63;;
568;SDS011;269;48.884;9.192;2023-05-29T08:59:57;4.47;;;4.10;;
568;SDS011;269;48.884;9.192;2023-05-29T09:02:24;4.20;;;3.70;;
568;SDS011;269;48.884;9.192;2023-05-29T09:04:52;4.60;;;4.20;;
568;SDS011;269;48.884;9.192;2023-05-29T09:07:19;4.00;;;3.70;;
568;SDS011;269;48.884;9.192;2023-05-29T09:09:48;4.17;;;3.77;;
568;SDS011;269;48.884;9.192;2023-05-29T09:12:16;5.00;;;4.60;;
568;SDS011;269;48.884;9.192;2023-05-29T09:14:44;4.63;;;4.23;;
568;SDS011;269;48.884;9.192;2023-05-29T09:17:12;4.67;;;4.27;;
568;SDS011;269;48.884;9.192;2023-05-29T09:19:40;4.47;;;4.07;;
568;SDS011;269;48.884;9.192;2023-05-29T09:22:08;4.53;;;4.13;;
568;SDS011;269;48.884;9.192;2023-05-29T09:24:37;7.40;;;4.20;;
568;SDS011;269;48.884;9.192;2023-05-29T09:27:05;5.47;;;4.97;;
568;SDS011;269;48.884;9.192;2023-05-29T09:29:36;4.70;;;4.30;;
568;SDS011;269;48.884;9.192;2023-05-29T09:32:06;4.80;;;4.40;;
568;SDS011;269;48.884;9.192;2023-05-29T09:34:34;5.30;;;4.60;;
568;SDS011;269;48.884;9.192;2023-05-29T09:37:01;5.27;;;4.87;;
568;SDS011;269;48.884;9.192;2023-05-29T09:39:38;4.60;;;4.30;;
568;SDS011;269;48.884;9.192;2023-05-29T09:42:11;4.43;;;4.03;;
568;SDS011;269;48.884;9.192;2023-05-29T09:44:40;5.17;;;4.60;;
568;SDS011;269;48.884;9.192;2023-05-29T09:47:08;5.13;;;4.63;;
568;SDS011;269;48.884;9.192;2023-05-29T09:49:37;3.90;;;3.60;;
568;SDS011;269;48.884;9.192;2023-05-29T09:52:07;4.43;;;4.10;;
568;SDS011;269;48.884;9.192;2023-05-29T09:54:35;4.40;;;4.10;;
568;SDS011;269;48.884;9.192;2023-05-29T09:57:03;5.57;;;4.20;;
568;SDS011;269;48.884;9.192;2023-05-29T09:59:32;4.43;;;4.03;;
568;SDS011;269;48.884;9.192;2023-05-29T10:02:03;4.43;;;4.03;;
568;SDS011;269;48.884;9.192;2023-05-29T10:04:33;4.90;;;4.47;;
568;SDS011;269;48.884;9.192;2023-05-29T10:07:02;4.40;;;3.97;;
568;SDS011;269;48.884;9.192;2023-05-29T10:09:32;4.03;;;3.73;;
568;SDS011;269;48.884;9.192;2023-05-29T10:12:01;5.10;;;4.10;;
568;SDS011;269;48.884;9.192;2023-05-29T10:14:33;4.23;;;3.83;;
568;SDS011;269;48.884;9.192;2023-05-29T10:17:02;4.57;;;4.10;;
568;SDS011;269;48.884;9.192;2023-05-29T10:19:33;4.90;;;4.40;;
568;SDS011;269;48.884;9.192;2023-05-29T10:22:04;4.60;;;4.03;;
568;SDS011;269;48.884;9.192;2023-05-29T10:24:32;4.70;;;4.30;;
568;SDS011;269;48.884;9.192;2023-05-29T10:27:01;5.03;;;4.63;;
568;SDS011;269;48.884;9.192;2023-05-29T10:29:29;4.17;;;3.80;;
568;SDS011;269;48.884;9.192;2023-05-29T10:32:04;4.03;;;3.63;;
568;SDS011;269;48.884;9.192;2023-05-29T10:34:37;4.10;;;3.50;;
568;SDS011;269;48.884;9.192;2023-05-29T10:37:09;4.93;;;3.70;;
568;SDS011;269;48.884;9.192;2023-05-29T10:39:44;4.43;;;4.03;;
568;SDS011;269;48.884;9.192;2023-05-29T10:45:07;4.30;;;3.27;;
568;SDS011;269;48.884;9.192;2023-05-29T10:47:36;4.20;;;3.80;;
568;SDS011;269;48.884;9.192;2023-05-29T10:50:03;4.50;;;4.10;;
568;SDS011;269;48.884;9.192;2023-05-29T10:52:31;6.20;;;3.50;;
568;SDS011;269;48.884;9.192;2023-05-29T10:54:58;4.53;;;4.13;;
568;SDS011;269;48.884;9.192;2023-05-29T10:57:29;4.80;;;3.77;;
568;SDS011;269;48.884;9.192;2023-05-29T12:41:22;3.57;;;3.27;;
568;SDS011;269;48.884;9.192;2023-05-29T12:43:52;3.70;;;3.40;;
568;SDS011;269;48.884;9.192;2023-05-29T12:46:20;4.10;;;3.80;;
568;SDS011;269;48.884;9.192;2023-05-29T12:48:47;3.77;;;3.47;;
568;SDS011;269;48.884;9.192;2023-05-29T12:51:15;3.60;;;3.30;;
568;SDS011;269;48.884;9.192;2023-05-29T12:53:44;3.80;;;3.50;;
568;SDS011;269;48.884;9.192;2023-05-29T12:56:11;5.60;;;3.70;;
568;SDS011;269;48.884;9.192;2023-05-29T12:58:39;3.20;;;3.00;;
568;SDS011;269;48.884;9.192;2023-05-29T13:01:11;3.60;;;3.30;;
568;SDS011;269;48.884;9.192;2023-05-29T13:03:40;7.50;;;3.83;;
568;SDS011;269;48.884;9.192;2023-05-29T13:06:07;5.27;;;4.20;;
568;SDS011;269;48.884;9.192;2023-05-29T13:08:34;4.10;;;3.77;;
568;SDS011;269;48.884;9.192;2023-05-29T13:11:01;3.67;;;3.33;;
568;SDS011;269;48.884;9.192;2023-05-29T13:13:28;3.37;;;3.10;;
568;SDS011;269;48.884;9.192;2023-05-29T13:15:57;4.10;;;3.40;;
568;SDS011;269;48.884;9.192;2023-05-29T13:18:24;3.77;;;3.50;;
568;SDS011;269;48.884;9.192;2023-05-29T13:20:51;4.43;;;3.00;;
568;SDS011;269;48.884;9.192;2023-05-29T13:23:18;6.60;;;3.97;;
568;SDS011;269;48.884;9.192;2023-05-29T13:25:45;3.67;;;3.30;;
568;SDS011;269;48.884;9.192;2023-05-29T13:28:14;4.00;;;3.70;;
568;SDS011;269;48.884;9.192;2023-05-29T13:30:42;3.73;;;3.43;;
568;SDS011;269;48.884;9.192;2023-05-29T13:33:10;3.60;;;3.30;;
568;SDS011;269;48.884;9.192;2023-05-29T13:35:37;3.83;;;3.53;;
568;SDS011;269;48.884;9.192;2023-05-29T13:38:04;3.80;;;3.50;;
568;SDS011;269;48.884;9.192;2023-05-29T13:40:31;3.40;;;3.20;;
568;SDS011;269;48.884;9.192;2023-05-29T13:42:58;3.60;;;3.40;;
568;SDS011;269;48.884;9.192;2023-05-29T13:45:25;3.63;;;3.43;;
568;SDS011;269;48.884;9.192;2023-05-29T13:47:53;3.60;;;3.30;;
568;SDS011;269;48.884;9.192;2023-05-29T13:50:22;3.40;;;3.20;;
568;SDS011;269;48.884;9.192;2023-05-29T13:52:49;3.50;;;3.17;;
568;SDS011;269;48.884;9.192;2023-05-29T13:55:16;3.50;;;3.30;;
568;SDS011;269;48.884;9.192;2023-05-29T13:57:43;3.60;;;3.30;;
568;SDS011;269;48.884;9.192;2023-05-29T14:00:11;3.67;;;3.47;;
568;SDS011;269;48.884;9.192;2023-05-29T14:02:39;5.60;;;4.03;;
568;SDS011;269;48.884;9.192;2023-05-29T14:05:06;3.77;;;3.40;;
568;SDS011;269;48.884;9.192;2023-05-29T14:07:36;3.90;;;3.50;;
568;SDS011;269;48.884;9.192;2023-05-29T14:10:03;3.67;;;3.37;;
568;SDS011;269;48.884;9.192;2023-05-29T14:12:32;3.77;;;3.47;;
568;SDS011;269;48.884;9.192;2023-05-29T14:14:59;3.80;;;3.50;;
568;SDS011;269;48.884;9.192;2023-05-29T14:17:26;4.13;;;3.37;;
568;SDS011;269;48.884;9.192;2023-05-29T14:19:53;3.53;;;3.33;;
568;SDS011;269;48.884;9.192;2023-05-29T14:22:20;3.37;;;3.17;;
568;SDS011;269;48.884;9.192;2023-05-29T14:24:49;3.63;;;3.23;;
568;SDS011;269;48.884;9.192;2023-05-29T14:27:16;3.53;;;3.23;;
568;SDS011;269;48.884;9.192;2023-05-29T14:29:43;3.20;;;3.00;;
568;SDS011;269;48.884;9.192;2023-05-29T14:32:11;3.97;;;3.57;;
568;SDS011;269;48.884;9.192;2023-05-29T14:34:38;3.40;;;3.20;;
568;SDS011;269;48.884;9.192;2023-05-29T14:37:05;3.30;;;3.10;;
568;SDS011;269;48.884;9.192;2023-05-29T14:39:32;3.70;;;3.40;;
568;SDS011;269;48.884;9.192;2023-05-29T14:42:00;3.60;;;3.27;;
568;SDS011;269;48.884;9.192;2023-05-29T14:44:27;4.40;;;4.07;;
568;SDS011;269;48.884;9.192;2023-05-29T14:46:54;4.73;;;3.60;;
568;SDS011;269;48.884;9.192;2023-05-29T14:49:22;3.50;;;3.20;;
568;SDS011;269;48.884;9.192;2023-05-29T14:51:49;3.20;;;3.00;;
568;SDS011;269;48.884;9.192;2023-05-29T14:54:16;4.07;;;3.20;;
568;SDS011;269;48.884;9.192;2023-05-29T14:56:43;3.33;;;3.03;;
568;SDS011;269;48.884;9.192;2023-05-29T14:59:12;3.70;;;2.80;;
568;SDS011;269;48.884;9.192;2023-05-29T15:01:39;4.20;;;3.80;;
568;SDS011;269;48.884;9.192;2023-05-29T15:04:06;3.20;;;3.00;;
568;SDS011;269;48.884;9.192;2023-05-29T15:06:33;3.57;;;3.37;;
568;SDS011;269;48.884;9.192;2023-05-29T15:09:00;3.30;;;3.10;;
568;SDS011;269;48.884;9.192;2023-05-29T15:11:28;3.50;;;3.20;;
568;SDS011;269;48.884;9.192;2023-05-29T15:13:56;3.33;;;3.03;;
568;SDS011;269;48.884;9.192;2023-05-29T15:16:24;3.40;;;3.20;;
568;SDS011;269;48.884;9.192;2023-05-29T15:18:51;3.40;;;3.10;;
568;SDS011;269;48.884;9.192;2023-05-29T15:21:18;3.10;;;2.90;;
568;SDS011;269;48.884;9.192;2023-05-29T15:23:45;3.57;;;3.27;;
568;SDS011;269;48.884;9.192;2023-05-29T15:26:13;3.17;;;2.97;;
568;SDS011;269;48.884;9.192;2023-05-29T15:28:40;3.67;;;3.47;;
568;SDS011;269;48.884;9.192;2023-05-29T15:31:08;3.60;;;3.27;;
568;SDS011;269;48.884;9.192;2023-05-29T15:33:36;3.30;;;3.10;;
568;SDS011;269;48.884;9.192;2023-05-29T15:36:04;3.23;;;3.00;;
568;SDS011;269;48.884;9.192;2023-05-29T15:38:33;3.60;;;3.30;;
568;SDS011;269;48.884;9.192;2023-05-29T15:41:00;3.47;;;3.17;;
568;SDS011;269;48.884;9.192;2023-05-29T15:43:27;3.00;;;2.80;;
568;SDS011;269;48.884;9.192;2023-05-29T15:45:54;3.20;;;3.00;;
568;SDS011;269;48.884;9.192;2023-05-29T15:48:21;3.90;;;2.80;;
568;SDS011;269;48.884;9.192;2023-05-29T15:50:50;3.33;;;3.10;;
568;SDS011;269;48.884;9.192;2023-05-29T15:53:17;3.63;;;3.33;;
568;SDS011;269;48.884;9.192;2023-05-29T15:55:44;3.47;;;3.10;;
568;SDS011;269;48.884;9.192;2023-05-29T15:58:11;3.67;;;3.30;;
568;SDS011;269;48.884;9.192;2023-05-29T16:00:38;3.30;;;3.00;;
568;SDS011;269;48.884;9.192;2023-05-29T16:03:05;3.43;;;3.13;;
568;SDS011;269;48.884;9.192;2023-05-29T16:05:34;3.10;;;2.90;;
568;SDS011;269;48.884;9.192;2023-05-29T16:08:02;2.93;;;2.73;;
568;SDS011;269;48.884;9.192;2023-05-29T16:10:30;3.37;;;3.07;;
568;SDS011;269;48.884;9.192;2023-05-29T16:12:57;3.27;;;2.90;;
568;SDS011;269;48.884;9.192;2023-05-29T16:15:24;3.13;;;2.90;;
568;SDS011;269;48.884;9.192;2023-05-29T16:17:51;3.30;;;3.00;;
568;SDS011;269;48.884;9.192;2023-05-29T16:20:18;2.87;;;2.67;;
568;SDS011;269;48.884;9.192;2023-05-29T16:22:46;3.23;;;3.03;;
568;SDS011;269;48.884;9.192;2023-05-29T16:25:14;2.90;;;2.70;;
568;SDS011;269;48.884;9.192;2023-05-29T16:27:41;3.60;;;3.30;;
568;SDS011;269;48.884;9.192;2023-05-29T16:30:09;3.47;;;3.10;;
568;SDS011;269;48.884;9.192;2023-05-29T16:32:36;4.10;;;3.70;;
568;SDS011;269;48.884;9.192;2023-05-29T16:35:03;3.40;;;3.10;;
568;SDS011;269;48.884;9.192;2023-05-29T16:37:32;5.20;;;4.20;;
568;SDS011;269;48.884;9.192;2023-05-29T16:39:59;4.10;;;3.53;;
568;SDS011;269;48.884;9.192;2023-05-29T16:42:27;4.83;;;4.40;;
568;SDS011;269;48.884;9.192;2023-05-29T16:44:54;3.63;;;3.33;;
568;SDS011;269;48.884;9.192;2023-05-29T16:47:21;3.10;;;2.80;;
568;SDS011;269;48.884;9.192;2023-05-29T16:49:49;3.57;;;3.23;;
568;SDS011;269;48.884;9.192;2023-05-29T16:52:16;3.50;;;2.93;;
568;SDS011;269;48.884;9.192;2023-05-29T16:54:45;3.23;;;2.93;;
568;SDS011;269;48.884;9.192;2023-05-29T16:57:12;3.77;;;3.47;;
568;SDS011;269;48.884;9.192;2023-05-29T16:59:41;3.20;;;2.90;;
568;SDS011;269;48.884;9.192;2023-05-29T17:02:08;3.60;;;3.30;;
568;SDS011;269;48.884;9.192;2023-05-29T17:04:35;3.87;;;3.53;;
568;SDS011;269;48.884;9.192;2023-05-29T17:07:02;3.73;;;3.40;;
568;SDS011;269;48.884;9.192;2023-05-29T17:09:29;3.80;;;3.50;;
568;SDS011;269;48.884;9.192;2023-05-29T17:11:57;4.53;;;3.37;;
568;SDS011;269;48.884;9.192;2023-05-29T17:14:24;3.90;;;3.60;;
568;SDS011;269;48.884;9.192;2023-05-29T17:16:53;3.60;;;3.30;;
568;SDS011;269;48.884;9.192;2023-05-29T17:19:19;3.87;;;3.57;;
568;SDS011;269;48.884;9.192;2023-05-29T17:21:47;4.20;;;3.80;;
568;SDS011;269;48.884;9.192;2023-05-29T17:24:14;4.17;;;3.87;;
568;SDS011;269;48.884;9.192;2023-05-29T17:26:41;4.47;;;3.80;;
568;SDS011;269;48.884;9.192;2023-05-29T17:29:08;4.37;;;3.97;;
568;SDS011;269;48.884;9.192;2023-05-29T17:31:35;3.50;;;3.20;;